createdAt,value
2018-03-21T00:01:08.036Z,9.03
2018-03-21T00:03:36.431Z,6.87
2018-03-21T00:06:04.901Z,4.83
2018-03-21T00:08:33.333Z,12.53
2018-03-21T00:11:01.752Z,8.87
2018-03-21T00:13:30.222Z,6.27
2018-03-21T00:15:58.634Z,6.70
2018-03-21T00:18:27.057Z,9.00
2018-03-21T00:20:55.518Z,6.50
2018-03-21T00:23:23.944Z,7.03
2018-03-21T00:25:52.362Z,8.47
2018-03-21T00:28:20.823Z,6.30
2018-03-21T00:30:49.230Z,9.63
2018-03-21T00:33:17.669Z,6.60
2018-03-21T00:35:46.161Z,6.60
2018-03-21T00:38:14.576Z,8.63
2018-03-21T00:40:43.000Z,7.13
2018-03-21T00:43:11.469Z,8.33
2018-03-21T00:45:39.921Z,6.90
2018-03-21T00:48:08.338Z,6.83
2018-03-21T00:50:36.789Z,7.77
2018-03-21T00:53:05.225Z,10.73
2018-03-21T00:55:33.656Z,12.60
2018-03-21T00:58:02.144Z,7.00
2018-03-21T01:00:30.569Z,6.70
2018-03-21T01:02:58.977Z,5.70
2018-03-21T01:05:27.426Z,5.90
2018-03-21T01:07:55.833Z,8.37
2018-03-21T01:10:24.245Z,7.73
2018-03-21T01:12:52.717Z,8.70
2018-03-21T01:15:21.157Z,7.83
2018-03-21T01:17:49.582Z,9.07
2018-03-21T01:20:18.041Z,7.43
2018-03-21T01:22:46.465Z,6.43
2018-03-21T01:25:14.887Z,8.13
2018-03-21T01:27:43.349Z,4.50
2018-03-21T01:30:11.777Z,4.93
2018-03-21T01:32:40.205Z,8.40
2018-03-21T01:35:08.673Z,6.87
2018-03-21T01:37:37.124Z,7.20
2018-03-21T01:40:05.565Z,7.10
2018-03-21T01:42:34.048Z,7.27
2018-03-21T01:45:02.481Z,7.93
2018-03-21T01:47:30.894Z,9.17
2018-03-21T01:49:59.383Z,8.20
2018-03-21T01:52:27.828Z,18.53
2018-03-21T01:54:56.265Z,17.60
2018-03-21T01:57:24.742Z,13.17
2018-03-21T01:59:53.176Z,13.37
2018-03-21T02:02:21.592Z,10.87
2018-03-21T02:04:50.058Z,8.87
2018-03-21T02:07:18.493Z,8.20
2018-03-21T02:09:46.905Z,7.70
2018-03-21T02:12:15.372Z,8.00
2018-03-21T02:14:43.785Z,9.03
2018-03-21T02:17:12.194Z,7.27
2018-03-21T02:19:40.654Z,8.67
2018-03-21T02:22:09.060Z,8.97
2018-03-21T02:24:37.489Z,9.07
2018-03-21T02:27:05.989Z,8.27
2018-03-21T02:29:34.402Z,9.37
2018-03-21T02:32:02.825Z,10.60
2018-03-21T02:34:31.299Z,8.90
2018-03-21T02:36:59.760Z,6.73
2018-03-21T02:39:28.176Z,8.47
2018-03-21T02:41:56.629Z,5.67
2018-03-21T02:44:25.040Z,5.87
2018-03-21T02:46:53.452Z,11.23
2018-03-21T02:49:22.062Z,9.80
2018-03-21T02:51:50.485Z,8.73
2018-03-21T02:54:18.903Z,6.40
2018-03-21T02:56:47.371Z,5.37
2018-03-21T02:59:15.777Z,9.93
2018-03-21T03:01:44.199Z,7.57
2018-03-21T03:04:12.675Z,7.87
2018-03-21T03:06:41.087Z,6.23
2018-03-21T03:09:09.508Z,7.80
2018-03-21T03:11:37.968Z,7.87
2018-03-21T03:14:06.392Z,6.87
2018-03-21T03:16:34.801Z,7.07
2018-03-21T03:19:03.267Z,6.93
2018-03-21T03:21:31.677Z,9.03
2018-03-21T03:24:00.092Z,8.57
2018-03-21T03:26:28.572Z,8.40
2018-03-21T03:28:56.982Z,8.80
2018-03-21T03:31:25.394Z,9.03
2018-03-21T03:33:53.860Z,10.03
2018-03-21T03:36:22.295Z,6.00
2018-03-21T03:38:50.787Z,8.67
2018-03-21T03:41:19.253Z,6.47
2018-03-21T03:43:47.680Z,12.00
2018-03-21T03:46:16.095Z,6.67
2018-03-21T03:48:44.734Z,6.27
2018-03-21T03:51:13.209Z,5.50
2018-03-21T03:53:41.633Z,9.33
2018-03-21T03:56:10.116Z,6.80
2018-03-21T03:58:38.526Z,8.10
2018-03-21T04:01:06.933Z,6.20
2018-03-21T04:03:35.395Z,5.17
2018-03-21T04:06:03.840Z,8.10
2018-03-21T04:08:32.273Z,6.50
2018-03-21T04:11:00.933Z,6.20
2018-03-21T04:13:29.352Z,7.10
2018-03-21T04:15:57.776Z,5.13
2018-03-21T04:18:26.240Z,8.10
2018-03-21T04:20:54.665Z,6.50
2018-03-21T04:23:23.081Z,5.20
2018-03-21T04:25:51.542Z,8.10
2018-03-21T04:28:19.964Z,6.20
2018-03-21T04:30:48.378Z,6.03
2018-03-21T04:33:16.830Z,7.17
2018-03-21T04:35:45.255Z,6.10
2018-03-21T04:38:13.682Z,5.70
2018-03-21T04:40:42.134Z,6.33
2018-03-21T04:43:10.538Z,6.93
2018-03-21T04:45:38.969Z,9.77
2018-03-21T04:48:07.451Z,6.57
2018-03-21T04:50:35.892Z,8.77
2018-03-21T04:53:04.338Z,10.07
2018-03-21T04:55:32.790Z,5.67
2018-03-21T04:58:01.214Z,7.80
2018-03-21T05:00:29.641Z,6.07
2018-03-21T05:02:58.105Z,6.90
2018-03-21T05:05:26.540Z,7.13
2018-03-21T05:07:54.946Z,7.63
2018-03-21T05:10:23.441Z,28.03
2018-03-21T05:12:51.884Z,148.80
2018-03-21T05:15:20.342Z,78.97
2018-03-21T05:17:48.832Z,35.97
2018-03-21T05:20:17.251Z,18.87
2018-03-21T05:22:45.685Z,18.77
2018-03-21T05:25:14.181Z,16.90
2018-03-21T05:27:42.609Z,15.30
2018-03-21T05:30:11.032Z,9.73
2018-03-21T05:32:39.739Z,27.67
2018-03-21T05:35:08.171Z,43.00
2018-03-21T05:37:36.598Z,74.67
2018-03-21T05:40:05.083Z,20.13
2018-03-21T05:42:33.505Z,19.77
2018-03-21T05:45:01.932Z,10.10
2018-03-21T05:47:30.398Z,9.67
2018-03-21T05:49:58.816Z,9.77
2018-03-21T05:52:28.170Z,8.57
2018-03-21T05:54:56.626Z,9.77
2018-03-21T05:57:25.039Z,16.90
2018-03-21T05:59:53.461Z,100.63
2018-03-21T06:02:21.940Z,158.37
2018-03-21T06:04:50.383Z,376.87
2018-03-21T06:07:18.819Z,292.27
2018-03-21T06:09:47.318Z,376.03
2018-03-21T06:12:15.766Z,681.20
2018-03-21T06:14:44.203Z,460.33
2018-03-21T06:17:12.694Z,342.93
2018-03-21T06:19:41.129Z,398.20
2018-03-21T06:22:09.580Z,361.77
2018-03-21T06:24:38.076Z,273.90
2018-03-21T06:27:06.518Z,447.63
2018-03-21T06:29:34.972Z,271.10
2018-03-21T06:32:03.450Z,118.73
2018-03-21T06:34:31.888Z,135.30
2018-03-21T06:37:00.324Z,95.03
2018-03-21T06:39:28.821Z,50.90
2018-03-21T06:41:57.258Z,86.43
2018-03-21T06:44:25.690Z,33.30
2018-03-21T06:46:54.167Z,36.03
2018-03-21T06:49:22.591Z,26.00
2018-03-21T06:51:51.020Z,15.53
2018-03-21T06:54:19.500Z,132.37
2018-03-21T06:57:03.747Z,89.00
2018-03-21T06:59:32.234Z,46.93
2018-03-21T07:02:00.664Z,19.67
2018-03-21T07:04:29.078Z,18.20
2018-03-21T07:06:57.555Z,37.80
2018-03-21T07:09:25.990Z,25.27
2018-03-21T07:11:54.421Z,14.33
2018-03-21T07:14:34.583Z,11.97
2018-03-21T07:17:03.010Z,26.77
2018-03-21T07:19:31.441Z,16.00
2018-03-21T07:21:59.923Z,16.30
2018-03-21T07:24:28.346Z,18.77
2018-03-21T07:26:56.784Z,17.93
2018-03-21T07:29:25.242Z,12.40
2018-03-21T07:31:53.684Z,16.87
2018-03-21T07:34:22.093Z,20.03
2018-03-21T07:36:50.542Z,13.67
2018-03-21T07:39:18.966Z,8.67
2018-03-21T07:41:47.374Z,17.37
2018-03-21T07:44:15.838Z,17.17
2018-03-21T07:46:44.250Z,11.77
2018-03-21T07:49:12.679Z,15.53
2018-03-21T07:51:41.526Z,13.57
2018-03-21T07:54:09.935Z,13.67
2018-03-21T07:56:38.404Z,13.33
2018-03-21T07:59:06.858Z,17.77
2018-03-21T08:01:35.285Z,18.73
2018-03-21T08:04:03.712Z,32.73
2018-03-21T08:06:32.193Z,17.97
2018-03-21T08:09:00.638Z,9.73
2018-03-21T08:11:29.057Z,9.50
2018-03-21T08:13:57.510Z,15.20
2018-03-21T08:16:25.961Z,11.27
2018-03-21T08:18:54.373Z,12.27
2018-03-21T08:21:22.817Z,13.87
2018-03-21T08:23:51.231Z,16.97
2018-03-21T08:26:19.645Z,22.00
2018-03-21T08:28:48.181Z,13.67
2018-03-21T08:31:16.595Z,12.07
2018-03-21T08:33:45.003Z,10.53
2018-03-21T08:36:13.464Z,9.77
2018-03-21T08:38:41.888Z,13.00
2018-03-21T08:41:10.321Z,15.63
2018-03-21T08:43:38.798Z,14.60
2018-03-21T08:46:07.249Z,11.43
2018-03-21T08:48:35.671Z,9.57
2018-03-21T08:51:04.157Z,10.13
2018-03-21T08:53:32.575Z,9.93
2018-03-21T08:56:00.973Z,8.77
2018-03-21T08:58:29.443Z,8.67
2018-03-21T09:00:57.876Z,9.93
2018-03-21T09:03:26.286Z,9.63
2018-03-21T09:05:54.736Z,13.07
2018-03-21T09:08:23.156Z,8.33
2018-03-21T09:10:51.558Z,8.30
2018-03-21T09:13:20.013Z,9.70
2018-03-21T09:15:48.444Z,11.30
2018-03-21T09:18:16.927Z,15.70
2018-03-21T09:20:45.365Z,7.90
2018-03-21T09:23:13.788Z,8.50
2018-03-21T09:25:42.202Z,6.97
2018-03-21T09:28:10.665Z,7.43
2018-03-21T09:30:39.089Z,7.27
2018-03-21T09:33:07.494Z,8.23
2018-03-21T09:35:35.976Z,6.13
2018-03-21T09:38:04.390Z,7.40
2018-03-21T09:40:32.800Z,7.70
2018-03-21T09:43:01.264Z,8.13
2018-03-21T09:45:29.693Z,20.73
2018-03-21T09:47:58.106Z,9.40
2018-03-21T09:50:26.589Z,5.80
2018-03-21T09:52:55.013Z,7.50
2018-03-21T09:55:23.484Z,7.37
2018-03-21T09:57:51.915Z,6.20
2018-03-21T10:00:20.314Z,4.83
2018-03-21T10:02:48.727Z,6.87
2018-03-21T10:05:17.209Z,6.63
2018-03-21T10:07:45.633Z,5.17
2018-03-21T10:10:14.066Z,6.83
2018-03-21T10:12:42.529Z,6.53
2018-03-21T10:15:10.954Z,8.87
2018-03-21T10:17:39.358Z,6.07
2018-03-21T10:20:07.817Z,5.37
2018-03-21T10:22:36.281Z,12.17
2018-03-21T10:25:04.707Z,6.83
2018-03-21T10:27:33.213Z,6.50
2018-03-21T10:30:01.633Z,5.80
2018-03-21T10:32:30.085Z,6.40
2018-03-21T10:34:58.570Z,5.90
2018-03-21T10:37:26.974Z,7.53
2018-03-21T10:39:55.379Z,5.67
2018-03-21T10:42:23.857Z,13.47
2018-03-21T10:44:52.295Z,6.17
2018-03-21T10:47:20.735Z,9.13
2018-03-21T10:49:49.487Z,7.17
2018-03-21T10:52:17.927Z,5.60
2018-03-21T10:54:46.353Z,6.67
2018-03-21T10:57:14.844Z,7.90
2018-03-21T10:59:43.277Z,4.23
2018-03-21T11:02:14.538Z,3.93
2018-03-21T11:04:42.962Z,6.90
2018-03-21T11:07:11.366Z,5.87
2018-03-21T11:09:39.842Z,5.60
2018-03-21T11:12:08.276Z,6.93
2018-03-21T11:14:36.690Z,5.93
2018-03-21T11:17:05.150Z,6.20
2018-03-21T11:19:33.569Z,4.63
2018-03-21T11:22:02.008Z,8.10
2018-03-21T11:24:30.488Z,7.73
2018-03-21T11:26:58.921Z,4.40
2018-03-21T11:29:27.340Z,9.63
2018-03-21T11:31:55.791Z,4.60
2018-03-21T11:34:24.224Z,3.97
2018-03-21T11:36:52.634Z,5.70
2018-03-21T11:39:21.104Z,7.47
2018-03-21T11:41:49.533Z,4.60
2018-03-21T11:44:18.010Z,6.50
2018-03-21T11:46:46.468Z,4.80
2018-03-21T11:49:14.897Z,8.07
2018-03-21T11:51:43.316Z,7.93
2018-03-21T11:54:11.767Z,6.87
2018-03-21T11:56:40.198Z,5.23
2018-03-21T11:59:08.616Z,6.07
2018-03-21T12:01:37.102Z,7.23
2018-03-21T12:04:05.533Z,6.43
2018-03-21T12:06:33.934Z,4.37
2018-03-21T12:09:02.381Z,4.70
2018-03-21T12:11:30.787Z,9.60
2018-03-21T12:13:59.198Z,3.57
2018-03-21T12:16:28.006Z,6.27
2018-03-21T12:18:56.405Z,7.57
2018-03-21T12:21:24.822Z,6.40
2018-03-21T12:23:53.297Z,4.40
2018-03-21T12:26:21.720Z,6.73
2018-03-21T12:28:50.140Z,3.07
2018-03-21T12:31:18.582Z,5.47
2018-03-21T12:33:47.002Z,3.10
2018-03-21T12:36:15.401Z,7.00
2018-03-21T12:38:43.873Z,5.90
2018-03-21T12:41:12.282Z,3.07
2018-03-21T12:43:40.691Z,10.43
2018-03-21T12:46:09.325Z,4.00
2018-03-21T12:48:37.734Z,5.23
2018-03-21T12:51:06.150Z,4.30
2018-03-21T12:53:34.599Z,3.07
2018-03-21T12:56:03.044Z,2.27
2018-03-21T12:58:31.471Z,2.80
2018-03-21T13:00:59.913Z,3.47
2018-03-21T13:03:28.337Z,2.23
2018-03-21T13:05:56.738Z,4.20
2018-03-21T13:08:25.209Z,5.17
2018-03-21T13:10:53.628Z,3.40
2018-03-21T13:13:22.034Z,3.53
2018-03-21T13:15:50.509Z,3.97
2018-03-21T13:18:18.929Z,4.60
2018-03-21T13:20:47.329Z,2.97
2018-03-21T13:23:15.783Z,4.13
2018-03-21T13:25:44.204Z,4.17
2018-03-21T13:28:12.623Z,4.17
2018-03-21T13:30:41.094Z,5.93
2018-03-21T13:33:09.539Z,4.33
2018-03-21T13:35:37.950Z,3.87
2018-03-21T13:38:06.432Z,6.47
2018-03-21T13:40:34.834Z,2.83
2018-03-21T13:43:03.257Z,8.80
2018-03-21T13:45:31.710Z,3.13
2018-03-21T13:48:00.170Z,2.43
2018-03-21T13:50:28.578Z,4.27
2018-03-21T13:52:57.057Z,2.93
2018-03-21T13:55:25.463Z,3.93
2018-03-21T13:57:53.885Z,4.13
2018-03-21T14:00:22.350Z,3.83
2018-03-21T14:02:50.773Z,6.43
2018-03-21T14:05:19.243Z,6.70
2018-03-21T14:07:47.674Z,5.27
2018-03-21T14:10:16.084Z,5.07
2018-03-21T14:12:44.553Z,5.73
2018-03-21T14:15:12.999Z,7.53
2018-03-21T14:17:41.421Z,4.37
2018-03-21T14:20:09.846Z,3.57
2018-03-21T14:22:38.294Z,6.77
2018-03-21T14:25:06.712Z,6.07
2018-03-21T14:27:35.137Z,6.00
2018-03-21T14:30:03.742Z,5.07
2018-03-21T14:32:32.169Z,7.03
2018-03-21T14:35:00.588Z,4.47
2018-03-21T14:37:29.044Z,8.20
2018-03-21T14:39:57.452Z,5.50
2018-03-21T14:42:25.892Z,7.33
2018-03-21T14:44:54.340Z,9.30
2018-03-21T14:47:22.742Z,6.30
2018-03-21T14:49:51.155Z,6.70
2018-03-21T14:52:19.632Z,5.03
2018-03-21T14:54:48.050Z,6.67
2018-03-21T14:57:16.463Z,11.20
2018-03-21T14:59:45.072Z,7.27
2018-03-21T15:02:13.502Z,11.63
2018-03-21T15:04:41.932Z,9.20
2018-03-21T15:07:10.390Z,10.93
2018-03-21T15:09:38.817Z,6.27
2018-03-21T15:12:07.236Z,8.67
2018-03-21T15:14:35.720Z,16.23
2018-03-21T15:17:04.131Z,11.23
2018-03-21T15:19:32.551Z,12.33
2018-03-21T15:22:01.017Z,8.50
2018-03-21T15:24:29.426Z,8.40
2018-03-21T15:26:57.861Z,10.37
2018-03-21T15:29:26.310Z,12.17
2018-03-21T15:31:54.715Z,9.73
2018-03-21T15:34:23.138Z,7.03
2018-03-21T15:36:51.601Z,12.03
2018-03-21T15:39:20.020Z,7.80
2018-03-21T15:41:48.451Z,10.03
2018-03-21T15:44:16.906Z,14.60
2018-03-21T15:46:45.329Z,9.77
2018-03-21T15:49:13.757Z,6.93
2018-03-21T15:51:42.237Z,13.43
2018-03-21T15:54:10.916Z,9.53
2018-03-21T15:56:39.345Z,10.47
2018-03-21T15:59:07.801Z,12.30
2018-03-21T16:01:36.230Z,10.30
2018-03-21T16:04:04.641Z,8.03
2018-03-21T16:06:33.121Z,10.87
2018-03-21T16:09:01.556Z,10.10
2018-03-21T16:11:29.984Z,9.83
2018-03-21T16:13:58.446Z,9.33
2018-03-21T16:16:26.850Z,10.03
2018-03-21T16:18:55.258Z,10.00
2018-03-21T16:21:23.713Z,6.77
2018-03-21T16:23:52.131Z,7.57
2018-03-21T16:26:20.530Z,8.53
2018-03-21T16:28:48.994Z,8.30
2018-03-21T16:31:17.457Z,10.07
2018-03-21T16:33:45.866Z,7.37
2018-03-21T16:36:14.333Z,10.33
2018-03-21T16:38:42.760Z,6.93
2018-03-21T16:41:11.162Z,9.43
2018-03-21T16:43:39.630Z,13.00
2018-03-21T16:46:08.057Z,11.67
2018-03-21T16:48:36.458Z,9.93
2018-03-21T16:51:04.945Z,8.03
2018-03-21T16:53:33.376Z,10.80
2018-03-21T16:56:01.806Z,10.40
2018-03-21T16:58:30.258Z,9.30
2018-03-21T17:00:58.681Z,9.87
2018-03-21T17:03:27.092Z,12.13
2018-03-21T17:05:55.550Z,11.13
2018-03-21T17:08:23.981Z,11.43
2018-03-21T17:10:52.404Z,10.67
2018-03-21T17:13:20.877Z,12.97
2018-03-21T17:15:49.286Z,18.27
2018-03-21T17:18:17.699Z,10.03
2018-03-21T17:20:46.168Z,12.50
2018-03-21T17:23:14.593Z,16.80
2018-03-21T17:25:43.004Z,13.57
2018-03-21T17:28:11.459Z,14.13
2018-03-21T17:30:39.917Z,14.63
2018-03-21T17:33:08.331Z,12.33
2018-03-21T17:35:36.790Z,12.93
2018-03-21T17:38:05.207Z,15.70
2018-03-21T17:40:33.626Z,18.77
2018-03-21T17:43:02.116Z,15.67
2018-03-21T17:45:30.530Z,16.53
2018-03-21T17:47:58.938Z,22.63
2018-03-21T17:50:27.421Z,23.27
2018-03-21T17:52:55.848Z,19.63
2018-03-21T17:55:24.292Z,20.37
2018-03-21T17:57:52.792Z,23.40
2018-03-21T18:00:21.287Z,25.30
2018-03-21T18:02:50.071Z,17.40
2018-03-21T18:05:18.680Z,15.90
2018-03-21T18:07:47.113Z,13.37
2018-03-21T18:10:15.527Z,21.10
2018-03-21T18:12:43.978Z,15.70
2018-03-21T18:15:12.389Z,14.63
2018-03-21T18:17:40.824Z,18.40
2018-03-21T18:20:09.289Z,16.67
2018-03-21T18:22:37.709Z,17.07
2018-03-21T18:25:06.138Z,14.17
2018-03-21T18:27:34.614Z,17.73
2018-03-21T18:30:03.104Z,16.00
2018-03-21T18:32:31.522Z,24.77
2018-03-21T18:35:00.010Z,20.37
2018-03-21T18:37:28.434Z,18.00
2018-03-21T18:39:56.851Z,19.73
2018-03-21T18:42:25.321Z,16.57
2018-03-21T18:44:53.741Z,17.97
2018-03-21T18:47:22.149Z,16.67
2018-03-21T18:49:50.654Z,15.80
2018-03-21T18:52:19.108Z,14.17
2018-03-21T18:54:47.546Z,15.10
2018-03-21T18:57:16.033Z,14.23
2018-03-21T18:59:44.466Z,17.50
2018-03-21T19:02:12.880Z,13.80
2018-03-21T19:04:41.394Z,17.43
2018-03-21T19:07:09.820Z,12.30
2018-03-21T19:09:38.230Z,20.37
2018-03-21T19:12:06.713Z,13.97
2018-03-21T19:14:35.129Z,14.53
2018-03-21T19:17:03.556Z,12.47
2018-03-21T19:19:32.047Z,19.50
2018-03-21T19:22:00.458Z,16.17
2018-03-21T19:24:28.893Z,12.63
2018-03-21T19:26:57.365Z,17.30
2018-03-21T19:29:25.787Z,13.50
2018-03-21T19:31:54.245Z,16.53
2018-03-21T19:34:22.736Z,13.63
2018-03-21T19:36:51.191Z,12.83
2018-03-21T19:39:19.601Z,20.17
2018-03-21T19:41:48.081Z,14.17
2018-03-21T19:44:16.501Z,22.17
2018-03-21T19:46:44.921Z,16.37
2018-03-21T19:49:13.417Z,14.80
2018-03-21T19:51:41.848Z,18.40
2018-03-21T19:54:11.052Z,15.30
2018-03-21T19:56:39.514Z,15.03
2018-03-21T19:59:07.977Z,19.13
2018-03-21T20:01:36.452Z,16.57
2018-03-21T20:04:04.944Z,14.03
2018-03-21T20:06:33.370Z,14.03
2018-03-21T20:09:01.787Z,13.30
2018-03-21T20:11:30.247Z,15.53
2018-03-21T20:13:58.675Z,13.63
2018-03-21T20:16:27.089Z,16.43
2018-03-21T20:18:55.580Z,14.03
2018-03-21T20:21:23.990Z,19.87
2018-03-21T20:23:52.402Z,15.60
2018-03-21T20:26:20.885Z,13.83
2018-03-21T20:28:49.298Z,18.30
2018-03-21T20:31:17.739Z,13.00
2018-03-21T20:33:46.237Z,17.83
2018-03-21T20:36:14.646Z,14.17
2018-03-21T20:38:43.050Z,16.00
2018-03-21T20:41:11.548Z,16.77
2018-03-21T20:43:39.982Z,16.57
2018-03-21T20:46:08.409Z,22.33
2018-03-21T20:48:36.879Z,13.83
2018-03-21T20:51:05.368Z,16.07
2018-03-21T20:53:33.754Z,18.03
2018-03-21T20:56:02.213Z,12.30
2018-03-21T20:58:30.637Z,13.63
2018-03-21T21:00:59.064Z,14.63
2018-03-21T21:03:27.526Z,18.03
2018-03-21T21:05:55.990Z,13.40
2018-03-21T21:08:24.426Z,18.73
2018-03-21T21:10:52.898Z,17.07
2018-03-21T21:13:21.329Z,13.83
2018-03-21T21:15:49.761Z,14.60
2018-03-21T21:18:18.232Z,15.60
2018-03-21T21:20:46.654Z,15.77
2018-03-21T21:23:15.081Z,15.33
2018-03-21T21:25:43.574Z,14.67
2018-03-21T21:28:11.986Z,18.53
2018-03-21T21:30:40.394Z,16.30
2018-03-21T21:33:08.878Z,18.43
2018-03-21T21:35:37.306Z,18.63
2018-03-21T21:38:05.727Z,17.10
2018-03-21T21:40:34.216Z,23.50
2018-03-21T21:43:02.668Z,22.13
2018-03-21T21:45:31.117Z,25.03
2018-03-21T21:47:59.612Z,25.37
2018-03-21T21:50:28.053Z,21.03
2018-03-21T21:52:56.496Z,28.03
2018-03-21T21:55:24.954Z,31.40
2018-03-21T21:57:53.401Z,28.73
2018-03-21T22:00:21.814Z,28.77
2018-03-21T22:02:50.283Z,34.23
2018-03-21T22:05:18.713Z,36.37
2018-03-21T22:07:47.157Z,36.37
2018-03-21T22:10:15.622Z,36.20
2018-03-21T22:12:44.086Z,34.53
2018-03-21T22:15:12.530Z,37.33
2018-03-21T22:17:41.021Z,34.13
2018-03-21T22:20:09.452Z,41.63
2018-03-21T22:22:37.864Z,37.73
2018-03-21T22:25:06.322Z,39.70
2018-03-21T22:27:34.752Z,44.40
2018-03-21T22:30:03.177Z,43.07
2018-03-21T22:32:31.630Z,45.83
2018-03-21T22:35:00.060Z,39.10
2018-03-21T22:37:28.481Z,45.13
2018-03-21T22:39:56.954Z,43.27
2018-03-21T22:42:25.380Z,44.33
2018-03-21T22:44:53.812Z,41.73
2018-03-21T22:47:22.284Z,43.37
2018-03-21T22:49:50.716Z,45.20
2018-03-21T22:52:19.130Z,39.27
2018-03-21T22:54:47.599Z,45.87
2018-03-21T22:57:16.017Z,44.83
2018-03-21T22:59:44.442Z,45.17
2018-03-21T23:02:12.910Z,49.53
2018-03-21T23:04:41.342Z,46.67
2018-03-21T23:07:09.778Z,49.90
2018-03-21T23:09:38.338Z,47.27
2018-03-21T23:12:06.755Z,47.73
2018-03-21T23:14:35.170Z,44.83
2018-03-21T23:17:03.625Z,48.50
2018-03-21T23:19:32.054Z,45.97
2018-03-21T23:22:00.470Z,48.97
2018-03-21T23:24:28.938Z,51.40
2018-03-21T23:26:57.369Z,50.07
2018-03-21T23:29:25.831Z,46.60
2018-03-21T23:31:54.275Z,48.17
2018-03-21T23:34:22.725Z,51.67
2018-03-21T23:36:51.150Z,49.70
2018-03-21T23:39:19.626Z,49.17
2018-03-21T23:41:48.065Z,48.33
2018-03-21T23:44:16.502Z,51.00
2018-03-21T23:46:44.994Z,49.70
2018-03-21T23:49:13.423Z,50.80
2018-03-21T23:51:41.853Z,45.00
2018-03-21T23:54:10.961Z,55.43
2018-03-21T23:56:39.386Z,44.73
2018-03-21T23:59:07.805Z,48.30
